TimeEDT,TemperatureF,Dew PointF,Humidity,Sea Level PressureIn,VisibilityMPH,Wind Direction,Wind SpeedMPH,Gust SpeedMPH,PrecipitationIn,Events,Conditions,WindDirDegrees,DateUTC
12:03 AM,48.2,44.6,87,29.80,10.0,West,12.7,-,N/A,,Scattered Clouds,270,2013-05-12 04:03:00
12:30 AM,48.2,44.6,87,29.80,10.0,West,11.5,23.0,N/A,,Mostly Cloudy,260,2013-05-12 04:30:00
12:49 AM,46.4,42.8,87,29.80,10.0,West,13.8,21.9,N/A,,Scattered Clouds,270,2013-05-12 04:49:00
12:54 AM,46.9,43.0,86,29.81,10.0,West,13.8,-,N/A,,Scattered Clouds,270,2013-05-12 04:54:00
1:32 AM,46.4,44.6,93,29.80,10.0,West,13.8,-,N/A,,Mostly Cloudy,270,2013-05-12 05:32:00
1:40 AM,46.4,44.6,93,29.80,10.0,West,13.8,-,N/A,,Overcast,270,2013-05-12 05:40:00
1:54 AM,46.9,44.1,90,29.81,10.0,West,16.1,25.3,N/A,,Overcast,270,2013-05-12 05:54:00
2:54 AM,46.9,44.1,90,29.80,4.0,WSW,11.5,19.6,0.00,Rain,Light Rain,250,2013-05-12 06:54:00
3:01 AM,46.4,44.6,93,29.78,3.0,WSW,11.5,18.4,0.01,Rain,Light Rain,250,2013-05-12 07:01:00
3:10 AM,46.4,44.6,93,29.78,2.5,WSW,12.7,-,0.01,Rain,Light Rain,250,2013-05-12 07:10:00
3:18 AM,46.4,44.6,93,29.80,1.8,West,17.3,27.6,0.03,Rain,Rain,260,2013-05-12 07:18:00
3:20 AM,44.6,44.6,100,29.80,2.0,WNW,21.9,27.6,0.03,Rain,Rain,290,2013-05-12 07:20:00
3:29 AM,42.8,37.4,81,29.80,7.0,WNW,18.4,27.6,0.03,Rain,Light Rain,300,2013-05-12 07:29:00
3:39 AM,42.8,37.4,81,29.81,10.0,WNW,12.7,25.3,0.03,,Overcast,290,2013-05-12 07:39:00
3:54 AM,42.1,37.9,85,29.84,10.0,WNW,13.8,21.9,0.03,,Overcast,300,2013-05-12 07:54:00
4:10 AM,41.0,37.4,87,29.81,9.0,NW,9.2,-,N/A,,Overcast,310,2013-05-12 08:10:00
4:54 AM,39.9,37.0,89,29.85,10.0,WNW,8.1,-,0.00,Rain,Light Rain,290,2013-05-12 08:54:00
5:07 AM,39.2,37.4,93,29.81,10.0,WNW,15.0,20.7,0.00,,Overcast,300,2013-05-12 09:07:00
5:29 AM,39.2,35.6,87,29.82,10.0,WNW,16.1,23.0,0.01,,Overcast,300,2013-05-12 09:29:00
5:54 AM,39.0,35.1,86,29.86,10.0,WNW,11.5,-,0.01,,Overcast,300,2013-05-12 09:54:00
6:20 AM,37.4,33.8,87,29.84,10.0,WNW,15.0,23.0,N/A,,Mostly Cloudy,300,2013-05-12 10:20:00
6:50 AM,37.4,30.2,75,29.85,10.0,WNW,12.7,-,N/A,,Scattered Clouds,300,2013-05-12 10:50:00
6:54 AM,37.0,30.0,76,29.88,10.0,WNW,13.8,-,N/A,,Partly Cloudy,300,2013-05-12 10:54:00
7:54 AM,36.0,28.9,76,29.90,10.0,West,10.4,-,N/A,,Clear,280,2013-05-12 11:54:00
8:54 AM,39.0,28.9,67,29.90,10.0,West,10.4,20.7,N/A,,Scattered Clouds,280,2013-05-12 12:54:00
9:21 AM,37.4,26.6,65,29.88,10.0,WNW,18.4,24.2,N/A,,Mostly Cloudy,300,2013-05-12 13:21:00
9:41 AM,39.2,28.4,65,29.87,10.0,West,17.3,23.0,N/A,,Scattered Clouds,280,2013-05-12 13:41:00
9:54 AM,39.9,28.0,63,29.90,10.0,West,19.6,25.3,N/A,,Partly Cloudy,280,2013-05-12 13:54:00
10:54 AM,42.1,25.0,51,29.89,10.0,WNW,16.1,27.6,N/A,,Scattered Clouds,290,2013-05-12 14:54:00
11:54 AM,45.0,26.1,48,29.89,10.0,West,20.7,29.9,N/A,,Mostly Cloudy,270,2013-05-12 15:54:00
12:54 PM,43.0,23.0,45,29.90,10.0,West,18.4,32.2,N/A,,Overcast,270,2013-05-12 16:54:00
1:54 PM,43.0,23.0,45,29.91,10.0,West,19.6,26.5,N/A,,Overcast,280,2013-05-12 17:54:00
2:54 PM,45.0,26.1,48,29.91,10.0,West,13.8,24.2,0.00,Rain,Light Rain,270,2013-05-12 18:54:00
3:54 PM,46.0,24.1,42,29.92,10.0,West,20.7,42.6,0.00,,Mostly Cloudy,280,2013-05-12 19:54:00
4:54 PM,45.0,21.9,40,29.93,10.0,West,17.3,33.4,N/A,,Overcast,270,2013-05-12 20:54:00
5:54 PM,44.1,21.0,40,29.94,10.0,WNW,21.9,32.2,N/A,,Overcast,290,2013-05-12 21:54:00
6:54 PM,45.0,21.9,40,29.96,10.0,West,16.1,29.9,N/A,,Mostly Cloudy,270,2013-05-12 22:54:00
7:54 PM,42.1,21.9,45,29.98,10.0,West,17.3,28.8,N/A,,Overcast,280,2013-05-12 23:54:00
8:54 PM,41.0,23.0,49,30.00,10.0,West,9.2,20.7,N/A,,Mostly Cloudy,280,2013-05-13 00:54:00
9:54 PM,39.0,24.1,55,30.01,10.0,West,9.2,-,N/A,,Overcast,280,2013-05-13 01:54:00
10:54 PM,39.0,26.1,60,30.02,10.0,West,17.3,23.0,N/A,,Mostly Cloudy,280,2013-05-13 02:54:00
11:54 PM,37.0,26.1,65,30.02,10.0,West,10.4,-,N/A,,Clear,280,2013-05-13 03:54:00